1WI8 weather

Jorgensen - Stoller Airport
Algoma, Wisconsin, United States

Public forecast

Using degrees Fahrenheit for public forecast. Weather courtesy of forecast.io.

METAR (pilot weather report)

Closest report is Door County Cherryland Airport, 12.5 nm (23.2 km) N. Retrieved 2019/07/18 03:56 UTC (5 minutes ago):

KSUE 180356Z AUTO 14007KT 10SM CLR 21/17 A2988 RMK AO2 SLP114 T02060172

TAF (pilot weather forecast)

Forecast is more than 12 hours old.

Closest forecast is Austin Straubel International Airport, 30.8 nm (57.1 km) WSW. Retrieved 2019/07/17 00:28 UTC (1 day ago):

TAF KGRB 172325Z 1800/1824 12007KT P6SM SCT035 BKN120 FM180800 15012KT 5SM -SHRA BR SCT025 OVC050 TEMPO 1808/1812 1SM +TSRA BR SCT012 BKN025CB FM181200 17011KT 5SM BR VCSH OVC015 FM181500 20012G18KT P6SM BKN040